Barker, Texas
Current Conditions -  °F | °C
As of 3:53 PM on Monday 20 Oct 2014 (Local Time) from KSGR Reporting Station
Clear Clear  
Wind Chill: 83°   Ceiling: Unl
Heat Index: 83°   Visibility: 10mi
Dew Point: 58°   Wind: 10mph
Humidity: 42%   Direction: 20°NNE
Pressure: 29.98"   Gusts: NA
Location:  29.78°N, 95.68°W
Report Text: KSGR 202053Z 02009KT 10SM CLR 28/14 A2998 RMK AO2 SLP155 T02830144 56018
Loading
Personal Weather Stations






























Interactive Weather Map
Tropical Storm Tracking
New forecast layout! Learn more

10-Day Weather Forecast

Advertisements
Track Severe Weather on mobile